createdAt,value
2022-10-28T00:02:44.825Z,13.90
2022-10-28T00:05:34.497Z,13.95
2022-10-28T00:08:20.277Z,13.98
2022-10-28T00:11:12.528Z,13.97
2022-10-28T00:13:58.822Z,14.00
2022-10-28T00:16:44.214Z,14.00
2022-10-28T00:19:30.022Z,14.00
2022-10-28T00:22:15.418Z,13.92
2022-10-28T00:25:00.627Z,13.93
2022-10-28T00:27:45.846Z,13.91
2022-10-28T00:33:21.503Z,13.94
2022-10-28T00:36:13.746Z,13.94
2022-10-28T00:39:00.145Z,13.95
2022-10-28T00:41:50.085Z,13.96
2022-10-28T00:44:55.157Z,13.96
2022-10-28T00:47:52.743Z,13.97
2022-10-28T00:50:52.039Z,13.98
2022-10-28T00:53:39.841Z,13.99
2022-10-28T00:56:28.333Z,13.97
2022-10-28T00:59:29.844Z,13.96
2022-10-28T01:02:15.873Z,13.97
2022-10-28T01:05:01.639Z,14.01
2022-10-28T01:07:47.143Z,13.98
2022-10-28T01:10:53.096Z,13.95
2022-10-28T01:14:06.173Z,13.92
2022-10-28T01:17:13.313Z,13.89
2022-10-28T01:20:13.994Z,13.89
2022-10-28T01:23:25.275Z,13.88
2022-10-28T01:26:40.767Z,13.89
2022-10-28T01:29:43.936Z,13.89
2022-10-28T01:33:00.089Z,13.90
2022-10-28T01:36:07.794Z,13.95
2022-10-28T01:39:16.322Z,13.96
2022-10-28T01:42:26.796Z,14.00
2022-10-28T01:45:20.907Z,13.99
2022-10-28T01:48:17.871Z,14.00
2022-10-28T01:51:40.546Z,13.99
2022-10-28T01:54:29.728Z,13.99
2022-10-28T01:57:18.312Z,13.98
2022-10-28T02:00:05.149Z,14.04
2022-10-28T02:02:57.958Z,14.02
2022-10-28T02:05:47.731Z,14.04
2022-10-28T02:08:57.865Z,14.03
2022-10-28T02:11:46.377Z,14.05
2022-10-28T02:15:02.768Z,13.99
2022-10-28T02:18:00.361Z,14.04
2022-10-28T02:20:55.315Z,14.04
2022-10-28T02:23:53.469Z,14.05
2022-10-28T02:26:44.715Z,14.02
2022-10-28T02:29:36.870Z,14.01
2022-10-28T02:32:27.824Z,14.05
2022-10-28T02:35:27.258Z,14.03
2022-10-28T02:38:18.452Z,14.03
2022-10-28T02:41:11.427Z,14.00
2022-10-28T02:44:03.082Z,13.97
2022-10-28T02:46:50.539Z,13.96
2022-10-28T02:49:40.059Z,13.96
2022-10-28T02:52:28.385Z,13.94
2022-10-28T02:55:13.899Z,13.93
2022-10-28T02:58:00.136Z,13.94
2022-10-28T03:00:46.713Z,13.97
2022-10-28T03:03:32.085Z,13.97
2022-10-28T03:06:18.324Z,14.00
2022-10-28T03:09:03.727Z,14.02
2022-10-28T03:11:49.166Z,14.04
2022-10-28T03:14:34.665Z,14.02
2022-10-28T03:17:19.961Z,14.00
2022-10-28T03:20:05.910Z,14.00
2022-10-28T03:22:51.851Z,13.96
2022-10-28T03:25:37.751Z,13.97
2022-10-28T03:28:23.363Z,13.98
2022-10-28T03:31:08.793Z,13.96
2022-10-28T03:33:54.289Z,13.99
2022-10-28T03:36:39.638Z,13.95
2022-10-28T03:39:25.024Z,13.96
2022-10-28T03:42:10.421Z,13.95
2022-10-28T03:44:55.647Z,13.95
2022-10-28T03:47:41.121Z,13.94
2022-10-28T03:50:26.748Z,13.96
2022-10-28T03:53:12.164Z,13.99
2022-10-28T03:56:00.436Z,14.03
2022-10-28T03:58:48.695Z,14.06
2022-10-28T04:01:34.135Z,14.07
2022-10-28T04:04:20.300Z,14.09
2022-10-28T04:07:05.611Z,14.08
2022-10-28T04:09:51.617Z,14.04
2022-10-28T04:12:37.098Z,14.07
2022-10-28T04:15:22.770Z,14.03
2022-10-28T04:18:08.476Z,14.04
2022-10-28T04:20:54.031Z,14.05
2022-10-28T04:23:39.367Z,14.02
2022-10-28T04:26:25.602Z,13.98
2022-10-28T04:29:10.994Z,13.99
2022-10-28T04:31:56.314Z,13.98
2022-10-28T04:34:41.627Z,14.02
2022-10-28T04:37:27.043Z,13.99
2022-10-28T04:40:12.797Z,13.31
2022-10-28T04:42:58.495Z,12.55
2022-10-28T04:45:45.101Z,12.23
2022-10-28T04:48:30.809Z,11.97
2022-10-28T04:51:16.213Z,11.57
2022-10-28T04:54:01.694Z,11.41
2022-10-28T04:56:47.156Z,11.21
2022-10-28T04:59:32.710Z,11.10
2022-10-28T05:02:18.374Z,10.89
2022-10-28T05:05:04.763Z,10.81
2022-10-28T05:07:50.487Z,10.73
2022-10-28T05:10:35.813Z,10.68
2022-10-28T05:13:21.219Z,10.65
2022-10-28T05:16:07.260Z,10.63
2022-10-28T05:18:53.020Z,10.56
2022-10-28T05:21:38.349Z,10.49
2022-10-28T05:24:23.775Z,10.41
2022-10-28T05:27:09.315Z,10.42
2022-10-28T05:29:54.626Z,10.43
2022-10-28T05:32:40.229Z,10.29
2022-10-28T05:35:25.650Z,10.22
2022-10-28T05:38:11.092Z,10.15
2022-10-28T05:40:56.980Z,10.03
2022-10-28T05:43:42.271Z,9.89
2022-10-28T05:46:27.665Z,9.78
2022-10-28T05:49:13.178Z,9.72
2022-10-28T05:51:58.716Z,9.54
2022-10-28T05:54:44.219Z,9.42
2022-10-28T05:57:29.657Z,9.38
2022-10-28T06:00:16.933Z,9.28
2022-10-28T06:03:10.952Z,9.25
2022-10-28T06:05:57.582Z,9.17
2022-10-28T06:08:42.907Z,9.07
2022-10-28T06:11:26.723Z,9.06
2022-10-28T06:14:12.072Z,8.96
2022-10-28T06:16:57.935Z,8.91
2022-10-28T06:19:43.402Z,8.88
2022-10-28T06:22:28.661Z,8.84
2022-10-28T06:25:14.197Z,8.79
2022-10-28T06:28:01.355Z,8.77
2022-10-28T06:30:46.640Z,8.79
2022-10-28T06:33:32.478Z,8.76
2022-10-28T06:36:18.007Z,8.75
2022-10-28T06:39:04.232Z,8.74
2022-10-28T06:41:49.759Z,8.76
2022-10-28T06:44:34.917Z,8.77
2022-10-28T06:47:21.834Z,8.77
2022-10-28T06:50:07.382Z,8.76
2022-10-28T06:52:56.475Z,8.74
2022-10-28T06:55:41.994Z,8.68
2022-10-28T06:58:27.506Z,8.63
2022-10-28T07:01:13.153Z,8.57
2022-10-28T07:03:58.459Z,8.52
2022-10-28T07:06:45.455Z,8.45
2022-10-28T07:09:33.708Z,8.38
2022-10-28T07:12:19.186Z,8.42
2022-10-28T07:15:05.158Z,8.35
2022-10-28T07:17:58.108Z,8.31
2022-10-28T07:20:43.593Z,8.30
2022-10-28T07:23:31.686Z,8.28
2022-10-28T07:26:17.181Z,8.29
2022-10-28T07:29:02.591Z,8.26
2022-10-28T07:31:47.939Z,8.20
2022-10-28T07:34:33.379Z,8.22
2022-10-28T07:37:18.657Z,8.29
2022-10-28T07:40:04.444Z,8.25
2022-10-28T07:42:49.849Z,8.31
2022-10-28T07:45:36.315Z,8.39
2022-10-28T07:48:21.872Z,8.43
2022-10-28T07:51:08.892Z,8.37
2022-10-28T07:53:56.603Z,8.32
2022-10-28T07:56:42.173Z,8.35
2022-10-28T07:59:27.712Z,8.43
2022-10-28T08:02:18.872Z,8.50
2022-10-28T08:05:05.089Z,8.60
2022-10-28T08:07:50.340Z,8.66
2022-10-28T08:10:35.737Z,8.71
2022-10-28T08:13:21.429Z,8.71
2022-10-28T08:16:08.302Z,8.69
2022-10-28T08:18:53.926Z,8.71
2022-10-28T08:21:39.467Z,8.68
2022-10-28T08:24:24.806Z,8.73
2022-10-28T08:27:10.164Z,8.84
2022-10-28T08:29:55.721Z,8.96
2022-10-28T08:32:41.130Z,9.00
2022-10-28T08:35:26.475Z,9.10
2022-10-28T08:38:11.786Z,9.08
2022-10-28T08:41:15.465Z,9.18
2022-10-28T08:44:28.806Z,9.24
2022-10-28T08:47:41.808Z,9.35
2022-10-28T08:50:32.030Z,9.43
2022-10-28T08:53:44.953Z,9.47
2022-10-28T08:56:58.846Z,9.61
2022-10-28T08:59:45.844Z,9.75
2022-10-28T09:02:47.264Z,9.87
2022-10-28T09:05:33.037Z,10.06
2022-10-28T09:08:23.642Z,10.21
2022-10-28T09:11:47.531Z,10.38
2022-10-28T09:14:50.326Z,10.53
2022-10-28T09:17:56.155Z,10.58
2022-10-28T09:20:55.805Z,10.68
2022-10-28T09:23:53.313Z,10.80
2022-10-28T09:26:41.794Z,10.86
2022-10-28T09:29:52.022Z,10.96
2022-10-28T09:32:58.601Z,11.09
2022-10-28T09:35:47.353Z,11.16
2022-10-28T09:38:38.056Z,11.27
2022-10-28T09:41:31.908Z,11.37
2022-10-28T09:44:28.652Z,11.36
2022-10-28T09:47:23.750Z,11.42
2022-10-28T09:50:31.618Z,11.54
2022-10-28T09:53:36.282Z,11.64
2022-10-28T09:56:23.413Z,11.70
2022-10-28T09:59:15.094Z,11.77
2022-10-28T10:02:00.961Z,11.78
2022-10-28T10:04:46.637Z,11.86
2022-10-28T10:07:36.976Z,11.92
2022-10-28T10:10:25.647Z,12.02
2022-10-28T10:13:13.540Z,12.07
2022-10-28T10:16:14.232Z,12.14
2022-10-28T10:19:03.218Z,12.24
2022-10-28T10:21:51.591Z,12.29
2022-10-28T10:24:37.336Z,12.34
2022-10-28T10:27:23.164Z,12.46
2022-10-28T10:30:17.492Z,12.53
2022-10-28T10:33:03.797Z,12.61
2022-10-28T10:36:02.999Z,12.71
2022-10-28T10:38:54.439Z,12.72
2022-10-28T10:41:42.354Z,12.79
2022-10-28T10:44:35.689Z,12.90
2022-10-28T10:47:21.361Z,13.06
2022-10-28T10:53:32.593Z,12.99
2022-10-28T10:56:27.610Z,13.02
2022-10-28T10:59:29.399Z,13.13
2022-10-28T11:02:24.221Z,13.24
2022-10-28T11:05:10.786Z,13.37
2022-10-28T11:07:58.732Z,13.50
2022-10-28T11:10:44.613Z,13.62
2022-10-28T11:13:30.988Z,13.70
2022-10-28T11:16:23.078Z,13.79
2022-10-28T11:19:36.187Z,13.86
2022-10-28T11:22:47.637Z,13.96
2022-10-28T11:25:38.538Z,14.04
2022-10-28T11:28:48.383Z,14.10
2022-10-28T11:32:05.355Z,14.24
2022-10-28T11:34:54.079Z,14.38
2022-10-28T11:38:12.768Z,14.50
2022-10-28T11:41:22.073Z,14.61
2022-10-28T11:44:41.610Z,14.74
2022-10-28T11:47:53.743Z,14.86
2022-10-28T11:51:10.362Z,15.00
2022-10-28T11:54:17.304Z,15.13
2022-10-28T11:57:10.883Z,15.25
2022-10-28T12:00:24.290Z,15.41
2022-10-28T12:03:18.887Z,15.51
2022-10-28T12:06:36.843Z,15.43
2022-10-28T12:09:38.390Z,15.33
2022-10-28T12:13:01.993Z,15.34
2022-10-28T12:16:02.295Z,15.55
2022-10-28T12:19:00.200Z,15.57
2022-10-28T12:22:23.266Z,15.44
2022-10-28T12:25:14.698Z,15.31
2022-10-28T12:28:06.254Z,15.19
2022-10-28T12:30:53.792Z,15.37
2022-10-28T12:33:46.863Z,15.60
2022-10-28T12:36:41.724Z,15.97
2022-10-28T12:39:56.909Z,16.37
2022-10-28T12:42:48.045Z,16.48
2022-10-28T12:45:33.573Z,16.48
2022-10-28T12:48:32.139Z,16.63
2022-10-28T12:51:36.442Z,16.62
2022-10-28T12:54:25.539Z,16.52
2022-10-28T12:57:17.346Z,16.48
2022-10-28T13:00:17.052Z,16.49
2022-10-28T13:03:11.667Z,16.53
2022-10-28T13:06:12.281Z,16.50
2022-10-28T13:09:09.756Z,16.54
2022-10-28T13:12:39.804Z,16.62
2022-10-28T13:15:36.304Z,16.51
2022-10-28T13:18:30.700Z,16.55
2022-10-28T13:21:51.204Z,16.49
2022-10-28T13:24:49.544Z,16.44
2022-10-28T13:30:23.036Z,16.46
2022-10-28T13:33:16.822Z,16.49
2022-10-28T13:36:16.173Z,16.52
2022-10-28T13:39:06.370Z,16.55
2022-10-28T13:42:14.979Z,16.39
2022-10-28T13:45:02.436Z,16.25
2022-10-28T13:47:47.755Z,16.20
2022-10-28T13:50:34.205Z,16.26
2022-10-28T13:53:28.885Z,16.01
2022-10-28T13:56:19.996Z,16.12
2022-10-28T13:59:29.448Z,16.15
2022-10-28T14:02:38.648Z,16.17
2022-10-28T14:05:47.408Z,16.23
2022-10-28T14:08:40.896Z,16.36
2022-10-28T14:11:32.514Z,16.34
2022-10-28T14:14:18.060Z,16.38
2022-10-28T14:17:04.292Z,16.32
2022-10-28T14:19:52.095Z,16.39
2022-10-28T14:22:37.881Z,16.29
2022-10-28T14:25:43.625Z,16.09
2022-10-28T14:28:29.295Z,16.15
2022-10-28T14:31:15.819Z,16.22
2022-10-28T14:34:01.251Z,16.57
2022-10-28T14:36:58.979Z,16.55
2022-10-28T14:40:23.697Z,16.66
2022-10-28T14:43:33.867Z,16.62
2022-10-28T14:46:25.536Z,16.47
2022-10-28T14:49:31.125Z,16.38
2022-10-28T14:52:19.418Z,16.35
2022-10-28T14:55:08.452Z,16.33
2022-10-28T14:57:54.405Z,16.47
2022-10-28T15:00:49.737Z,16.40
2022-10-28T15:03:35.761Z,16.30
2022-10-28T15:06:29.085Z,16.25
2022-10-28T15:09:23.606Z,16.08
2022-10-28T15:12:17.720Z,15.90
2022-10-28T15:15:03.030Z,15.73
2022-10-28T15:17:49.567Z,15.70
2022-10-28T15:20:36.225Z,15.69
2022-10-28T15:23:24.993Z,15.67
2022-10-28T15:26:16.617Z,15.62
2022-10-28T15:29:02.005Z,15.47
2022-10-28T15:32:07.672Z,15.32
2022-10-28T15:34:53.427Z,15.25
2022-10-28T15:37:38.970Z,15.16
2022-10-28T15:40:27.499Z,15.09
2022-10-28T15:43:24.025Z,15.00
2022-10-28T15:46:15.210Z,14.99
2022-10-28T15:49:02.180Z,15.01
2022-10-28T15:52:19.168Z,15.04
2022-10-28T15:55:21.774Z,15.09
2022-10-28T15:58:18.027Z,15.09
2022-10-28T16:01:27.167Z,15.01
2022-10-28T16:04:18.787Z,14.84
2022-10-28T16:07:09.078Z,14.76
2022-10-28T16:09:54.411Z,14.64
2022-10-28T16:12:45.414Z,14.52
2022-10-28T16:15:32.226Z,14.47
2022-10-28T16:18:17.577Z,14.36
2022-10-28T16:21:04.812Z,14.33
2022-10-28T16:23:56.422Z,14.22
2022-10-28T16:26:41.697Z,14.11
2022-10-28T16:29:26.860Z,14.03
2022-10-28T16:32:13.721Z,14.02
2022-10-28T16:34:59.162Z,13.97
2022-10-28T16:37:46.600Z,13.92
2022-10-28T16:40:51.848Z,13.85
2022-10-28T16:43:37.777Z,13.81
2022-10-28T16:46:23.413Z,13.74
2022-10-28T16:49:08.590Z,13.66
2022-10-28T16:51:54.609Z,13.60
2022-10-28T16:54:40.294Z,13.54
2022-10-28T16:57:26.769Z,13.53
2022-10-28T17:00:16.043Z,13.46
2022-10-28T17:03:01.413Z,13.46
2022-10-28T17:05:46.898Z,13.41
2022-10-28T17:09:00.663Z,13.35
2022-10-28T17:11:37.638Z,13.27
2022-10-28T17:14:22.999Z,13.15
2022-10-28T17:17:09.207Z,13.08
2022-10-28T17:19:54.817Z,13.01
2022-10-28T17:22:40.973Z,13.00
2022-10-28T17:25:27.347Z,13.00
2022-10-28T17:28:13.035Z,12.99
2022-10-28T17:31:03.647Z,13.01
2022-10-28T17:33:53.348Z,13.01
2022-10-28T17:36:39.088Z,12.90
2022-10-28T17:39:26.503Z,12.93
2022-10-28T17:42:12.256Z,12.96
2022-10-28T17:44:57.619Z,12.89
2022-10-28T17:47:43.033Z,12.89
2022-10-28T17:50:28.714Z,12.89
2022-10-28T17:53:14.768Z,12.76
2022-10-28T17:56:03.941Z,12.73
2022-10-28T17:58:52.459Z,12.67
2022-10-28T18:01:38.233Z,12.65
2022-10-28T18:04:26.535Z,12.65
2022-10-28T18:07:12.000Z,12.64
2022-10-28T18:09:57.356Z,12.65
2022-10-28T18:12:42.945Z,12.59
2022-10-28T18:15:28.310Z,12.60
2022-10-28T18:18:14.782Z,12.53
2022-10-28T18:21:00.760Z,12.44
2022-10-28T18:23:54.517Z,12.38
2022-10-28T18:26:40.179Z,12.26
2022-10-28T18:29:26.243Z,12.26
2022-10-28T18:32:12.197Z,12.25
2022-10-28T18:34:57.802Z,12.28
2022-10-28T18:37:43.309Z,12.31
2022-10-28T18:40:28.651Z,12.27
2022-10-28T18:43:14.719Z,12.23
2022-10-28T18:46:04.656Z,12.23
2022-10-28T18:48:50.143Z,12.25
2022-10-28T18:51:36.601Z,12.23
2022-10-28T18:54:22.323Z,12.21
2022-10-28T18:57:07.693Z,12.26
2022-10-28T19:02:58.302Z,12.40
2022-10-28T19:05:43.748Z,12.42
2022-10-28T19:08:29.369Z,12.34
2022-10-28T19:11:14.912Z,12.30
2022-10-28T19:14:02.754Z,12.28
2022-10-28T19:16:48.377Z,12.26
2022-10-28T19:19:38.356Z,12.24
2022-10-28T19:22:25.148Z,12.24
2022-10-28T19:25:10.691Z,12.21
2022-10-28T19:27:57.837Z,12.11
2022-10-28T19:30:43.289Z,12.08
2022-10-28T19:33:30.570Z,12.02
2022-10-28T19:36:24.565Z,11.94
2022-10-28T19:39:10.258Z,11.93
2022-10-28T19:41:55.632Z,11.88
2022-10-28T19:44:40.909Z,11.90
2022-10-28T19:47:26.418Z,11.91
2022-10-28T19:50:12.072Z,11.87
2022-10-28T19:52:57.342Z,11.85
2022-10-28T19:55:42.725Z,11.77
2022-10-28T19:58:29.747Z,11.69
2022-10-28T20:01:15.548Z,11.68
2022-10-28T20:04:01.718Z,11.77
2022-10-28T20:06:47.363Z,11.81
2022-10-28T20:09:32.623Z,11.72
2022-10-28T20:12:17.979Z,11.70
2022-10-28T20:15:03.777Z,11.63
2022-10-28T20:17:49.046Z,11.54
2022-10-28T20:20:35.104Z,11.40
2022-10-28T20:23:20.724Z,11.39
2022-10-28T20:26:07.027Z,11.39
2022-10-28T20:28:52.390Z,11.37
2022-10-28T20:31:39.151Z,11.40
2022-10-28T20:34:24.575Z,11.26
2022-10-28T20:37:09.914Z,11.24
2022-10-28T20:39:57.767Z,11.23
2022-10-28T20:42:44.446Z,11.25
2022-10-28T20:45:29.863Z,11.40
2022-10-28T20:48:15.355Z,11.40
2022-10-28T20:51:02.373Z,11.32
2022-10-28T20:53:48.095Z,11.25
2022-10-28T20:56:36.441Z,11.28
2022-10-28T20:59:22.264Z,11.22
2022-10-28T21:02:09.600Z,11.37
2022-10-28T21:04:55.475Z,11.29
2022-10-28T21:07:40.824Z,11.26
2022-10-28T21:10:26.295Z,11.23
2022-10-28T21:13:11.846Z,11.30
2022-10-28T21:15:57.928Z,11.33
2022-10-28T21:18:43.670Z,11.32
2022-10-28T21:21:29.941Z,11.28
2022-10-28T21:24:15.164Z,11.32
2022-10-28T21:27:00.555Z,11.27
2022-10-28T21:29:45.778Z,11.14
2022-10-28T21:32:31.066Z,11.04
2022-10-28T21:35:16.659Z,11.02
2022-10-28T21:38:02.380Z,11.01
2022-10-28T21:40:47.804Z,10.98
2022-10-28T21:43:35.923Z,10.91
2022-10-28T21:46:23.044Z,10.82
2022-10-28T21:49:08.732Z,10.72
2022-10-28T21:51:53.938Z,10.64
2022-10-28T21:54:39.469Z,10.49
2022-10-28T21:57:30.218Z,10.49
2022-10-28T22:00:16.073Z,10.45
2022-10-28T22:03:01.702Z,10.32
2022-10-28T22:05:50.860Z,10.37
2022-10-28T22:08:36.677Z,10.34
2022-10-28T22:11:23.975Z,10.28
2022-10-28T22:14:09.844Z,10.22
2022-10-28T22:16:55.484Z,10.19
2022-10-28T22:19:40.939Z,10.15
2022-10-28T22:22:26.289Z,10.08
2022-10-28T22:25:11.587Z,10.09
2022-10-28T22:27:57.170Z,10.02
2022-10-28T22:30:42.454Z,9.91
2022-10-28T22:33:27.769Z,9.93
2022-10-28T22:36:15.997Z,9.86
2022-10-28T22:39:01.237Z,9.84
2022-10-28T22:41:46.668Z,9.91
2022-10-28T22:44:32.031Z,9.91
2022-10-28T22:47:17.669Z,9.89
2022-10-28T22:50:03.628Z,9.91
2022-10-28T22:52:48.908Z,9.89
2022-10-28T22:55:34.248Z,9.98
2022-10-28T22:58:20.236Z,10.08
2022-10-28T23:01:07.090Z,10.12
2022-10-28T23:03:53.863Z,10.20
2022-10-28T23:06:39.466Z,10.40
2022-10-28T23:09:24.702Z,10.63
2022-10-28T23:12:10.167Z,10.76
2022-10-28T23:14:55.974Z,10.97
2022-10-28T23:17:41.491Z,11.03
2022-10-28T23:20:26.708Z,10.99
2022-10-28T23:23:12.133Z,11.07
2022-10-28T23:25:57.510Z,11.10
2022-10-28T23:28:43.106Z,11.27
2022-10-28T23:31:29.018Z,11.27
2022-10-28T23:34:14.494Z,11.38
2022-10-28T23:36:59.813Z,11.43
2022-10-28T23:39:45.332Z,11.46
2022-10-28T23:42:30.682Z,11.50
2022-10-28T23:45:16.073Z,11.56
2022-10-28T23:48:01.513Z,11.61
2022-10-28T23:50:46.923Z,11.56
2022-10-28T23:53:32.527Z,11.54
2022-10-28T23:56:17.841Z,11.46
2022-10-28T23:59:03.285Z,11.44
